createdAt,value
2023-04-18T00:01:51.608Z,9.50
2023-04-18T00:04:19.329Z,13.40
2023-04-18T00:06:47.477Z,9.80
2023-04-18T00:09:14.100Z,9.57
2023-04-18T00:11:41.272Z,13.27
2023-04-18T00:14:08.505Z,11.00
2023-04-18T00:16:35.094Z,11.05
2023-04-18T00:19:04.534Z,11.02
2023-04-18T00:21:32.964Z,11.27
2023-04-18T00:23:59.727Z,11.63
2023-04-18T00:26:27.661Z,9.80
2023-04-18T00:28:54.164Z,10.85
2023-04-18T00:31:20.765Z,9.63
2023-04-18T00:33:47.422Z,13.07
2023-04-18T00:36:13.925Z,11.43
2023-04-18T00:38:40.753Z,10.05
2023-04-18T00:41:07.422Z,14.75
2023-04-18T00:43:35.106Z,9.13
2023-04-18T00:46:01.744Z,9.75
2023-04-18T00:48:29.723Z,9.23
2023-04-18T00:50:57.181Z,12.38
2023-04-18T00:53:24.198Z,11.73
2023-04-18T00:55:51.398Z,13.48
2023-04-18T00:58:17.955Z,13.52
2023-04-18T01:00:44.550Z,13.02
2023-04-18T01:03:11.318Z,11.68
2023-04-18T01:05:38.112Z,14.13
2023-04-18T01:08:05.473Z,10.65
2023-04-18T01:10:32.360Z,13.30
2023-04-18T01:13:19.527Z,10.57
2023-04-18T01:15:48.585Z,13.98
2023-04-18T01:18:20.697Z,11.02
2023-04-18T01:20:50.118Z,12.30
2023-04-18T01:23:18.427Z,13.27
2023-04-18T01:25:48.777Z,13.25
2023-04-18T01:28:15.959Z,12.32
2023-04-18T01:30:43.987Z,13.75
2023-04-18T01:33:13.156Z,10.10
2023-04-18T01:35:39.854Z,14.55
2023-04-18T01:38:06.439Z,9.98
2023-04-18T01:40:35.400Z,12.70
2023-04-18T01:43:04.090Z,13.55
2023-04-18T01:45:31.997Z,12.13
2023-04-18T01:47:59.050Z,15.60
2023-04-18T01:50:26.021Z,17.42
2023-04-18T01:52:52.638Z,12.73
2023-04-18T01:55:19.316Z,13.10
2023-04-18T01:57:47.105Z,13.13
2023-04-18T02:00:14.973Z,15.07
2023-04-18T02:02:43.652Z,15.75
2023-04-18T02:05:10.852Z,17.88
2023-04-18T02:07:37.903Z,17.00
2023-04-18T02:10:04.808Z,18.05
2023-04-18T02:12:31.960Z,13.73
2023-04-18T02:14:58.467Z,15.02
2023-04-18T02:17:25.937Z,12.27
2023-04-18T02:19:52.525Z,21.40
2023-04-18T02:22:19.293Z,12.02
2023-04-18T02:24:45.950Z,18.20
2023-04-18T02:27:12.747Z,18.50
2023-04-18T02:29:39.518Z,14.77
2023-04-18T02:32:06.491Z,16.30
2023-04-18T02:34:35.083Z,14.73
2023-04-18T02:37:02.044Z,17.58
2023-04-18T02:39:28.621Z,14.80
2023-04-18T02:41:55.381Z,15.63
2023-04-18T02:44:22.573Z,14.85
2023-04-18T02:46:50.137Z,18.95
2023-04-18T02:49:16.658Z,19.10
2023-04-18T02:51:43.217Z,14.13
2023-04-18T02:54:09.907Z,17.35
2023-04-18T02:56:40.076Z,19.42
2023-04-18T02:59:07.193Z,16.20
2023-04-18T03:01:35.135Z,18.58
2023-04-18T03:04:01.732Z,18.40
2023-04-18T03:06:28.270Z,14.80
2023-04-18T03:08:55.672Z,18.00
2023-04-18T03:11:23.384Z,14.68
2023-04-18T03:13:49.964Z,15.07
2023-04-18T03:16:16.833Z,15.43
2023-04-18T03:18:43.634Z,20.35
2023-04-18T03:21:10.572Z,15.77
2023-04-18T03:23:37.438Z,25.30
2023-04-18T03:26:06.760Z,16.90
2023-04-18T03:28:33.564Z,21.83
2023-04-18T03:31:00.916Z,17.98
2023-04-18T03:33:28.822Z,17.33
2023-04-18T03:35:57.114Z,19.35
2023-04-18T03:38:23.707Z,18.13
2023-04-18T03:40:51.049Z,16.75
2023-04-18T03:43:19.910Z,18.38
2023-04-18T03:45:47.649Z,19.35
2023-04-18T03:48:14.578Z,20.75
2023-04-18T03:50:41.250Z,17.63
2023-04-18T03:53:07.790Z,20.77
2023-04-18T03:55:36.683Z,20.38
2023-04-18T03:58:03.628Z,21.88
2023-04-18T04:00:30.778Z,17.75
2023-04-18T04:02:57.570Z,19.88
2023-04-18T04:05:24.334Z,18.45
2023-04-18T04:07:51.029Z,22.92
2023-04-18T04:10:17.642Z,21.27
2023-04-18T04:12:44.313Z,23.08
2023-04-18T04:15:12.432Z,24.08
2023-04-18T04:17:39.375Z,18.13
2023-04-18T04:20:07.461Z,22.50
2023-04-18T04:22:36.778Z,19.45
2023-04-18T04:25:04.708Z,24.92
2023-04-18T04:27:33.969Z,22.65
2023-04-18T04:30:02.754Z,19.25
2023-04-18T04:32:29.376Z,21.50
2023-04-18T04:34:56.373Z,23.27
2023-04-18T04:37:24.762Z,19.63
2023-04-18T04:39:52.239Z,20.27
2023-04-18T04:42:19.698Z,18.33
2023-04-18T04:44:46.870Z,20.17
2023-04-18T04:47:14.652Z,20.75
2023-04-18T04:49:41.360Z,16.00
2023-04-18T04:52:07.874Z,19.48
2023-04-18T04:54:35.676Z,19.33
2023-04-18T04:57:02.404Z,18.88
2023-04-18T04:59:29.212Z,22.73
2023-04-18T05:01:57.140Z,18.50
2023-04-18T05:04:25.384Z,21.20
2023-04-18T05:06:52.180Z,18.50
2023-04-18T05:09:19.232Z,20.10
2023-04-18T05:11:47.636Z,16.27
2023-04-18T05:14:16.003Z,16.38
2023-04-18T05:16:42.794Z,16.88
2023-04-18T05:19:09.359Z,18.98
2023-04-18T05:21:37.174Z,18.42
2023-04-18T05:24:03.783Z,13.95
2023-04-18T05:26:30.405Z,15.82
2023-04-18T05:28:57.401Z,17.55
2023-04-18T05:31:24.086Z,15.77
2023-04-18T05:33:50.670Z,17.23
2023-04-18T05:36:17.313Z,16.55
2023-04-18T05:38:43.874Z,15.52
2023-04-18T05:41:10.554Z,19.25
2023-04-18T05:43:37.220Z,17.70
2023-04-18T05:46:03.875Z,18.58
2023-04-18T05:48:30.480Z,14.82
2023-04-18T05:50:57.993Z,13.40
2023-04-18T05:53:24.509Z,15.23
2023-04-18T05:55:51.168Z,13.98
2023-04-18T05:58:17.806Z,14.25
2023-04-18T06:00:44.401Z,12.25
2023-04-18T06:03:11.565Z,15.52
2023-04-18T06:05:38.628Z,15.40
2023-04-18T06:08:05.371Z,16.40
2023-04-18T06:10:31.913Z,15.50
2023-04-18T06:12:58.592Z,15.70
2023-04-18T06:15:25.181Z,13.18
2023-04-18T06:17:51.803Z,13.60
2023-04-18T06:20:18.482Z,14.10
2023-04-18T06:22:45.055Z,14.23
2023-04-18T06:25:12.041Z,26.20
2023-04-18T06:27:38.643Z,14.95
2023-04-18T06:30:07.017Z,14.32
2023-04-18T06:32:34.229Z,14.52
2023-04-18T06:35:00.768Z,14.52
2023-04-18T06:37:27.796Z,14.23
2023-04-18T06:39:54.489Z,12.23
2023-04-18T06:42:22.370Z,15.23
2023-04-18T06:44:49.409Z,12.27
2023-04-18T06:47:16.356Z,14.52
2023-04-18T06:49:42.887Z,20.05
2023-04-18T06:52:09.423Z,13.85
2023-04-18T06:54:36.245Z,13.98
2023-04-18T06:57:03.783Z,14.23
2023-04-18T06:59:31.078Z,14.35
2023-04-18T07:01:57.747Z,11.95
2023-04-18T07:04:25.074Z,14.15
2023-04-18T07:06:51.843Z,13.27
2023-04-18T07:09:18.905Z,13.00
2023-04-18T07:11:45.595Z,14.25
2023-04-18T07:14:12.585Z,11.95
2023-04-18T07:16:40.044Z,11.20
2023-04-18T07:19:06.906Z,9.93
2023-04-18T07:21:33.704Z,10.15
2023-04-18T07:24:00.409Z,12.27
2023-04-18T07:26:27.662Z,9.80
2023-04-18T07:28:54.198Z,11.60
2023-04-18T07:31:21.943Z,11.07
2023-04-18T07:33:48.510Z,12.75
2023-04-18T07:36:15.927Z,15.35
2023-04-18T07:38:42.726Z,14.07
2023-04-18T07:41:09.506Z,9.80
2023-04-18T07:43:36.201Z,15.68
2023-04-18T07:46:03.137Z,11.05
2023-04-18T07:48:29.941Z,10.68
2023-04-18T07:50:56.819Z,10.15
2023-04-18T07:53:24.490Z,14.77
2023-04-18T07:55:51.293Z,10.77
2023-04-18T07:58:17.942Z,9.73
2023-04-18T08:00:45.638Z,10.13
2023-04-18T08:03:13.228Z,10.40
2023-04-18T08:05:42.916Z,11.23
2023-04-18T08:08:11.617Z,8.15
2023-04-18T08:10:38.458Z,10.52
2023-04-18T08:13:06.225Z,8.63
2023-04-18T08:15:33.058Z,10.13
2023-04-18T08:18:00.815Z,9.73
2023-04-18T08:20:27.962Z,14.85
2023-04-18T08:23:05.038Z,9.63
2023-04-18T08:25:33.280Z,9.80
2023-04-18T08:28:00.176Z,10.70
2023-04-18T08:30:26.790Z,8.45
2023-04-18T08:32:53.907Z,9.05
2023-04-18T08:35:21.771Z,9.77
2023-04-18T08:37:48.324Z,10.63
2023-04-18T08:40:15.653Z,7.97
2023-04-18T08:42:45.100Z,9.93
2023-04-18T08:45:14.609Z,8.48
2023-04-18T08:47:42.127Z,9.73
2023-04-18T08:50:10.633Z,8.43
2023-04-18T08:52:40.164Z,7.53
2023-04-18T08:55:07.434Z,8.68
2023-04-18T08:57:35.880Z,9.15
2023-04-18T09:00:08.213Z,6.80
2023-04-18T09:05:27.103Z,8.25
2023-04-18T09:07:55.230Z,7.35
2023-04-18T09:10:33.375Z,8.02
2023-04-18T09:13:03.162Z,10.57
2023-04-18T09:15:30.466Z,8.20
2023-04-18T09:17:59.863Z,8.27
2023-04-18T09:20:30.631Z,8.63
2023-04-18T09:22:57.937Z,9.75
2023-04-18T09:25:35.917Z,8.93
2023-04-18T09:28:21.046Z,6.35
2023-04-18T09:30:48.561Z,7.45
2023-04-18T09:33:15.685Z,6.53
2023-04-18T09:35:42.517Z,8.90
2023-04-18T09:38:10.735Z,16.92
2023-04-18T09:40:37.359Z,7.70
2023-04-18T09:43:18.732Z,6.10
2023-04-18T09:45:48.904Z,6.17
2023-04-18T09:48:15.877Z,5.30
2023-04-18T09:50:45.181Z,6.03
2023-04-18T09:53:14.990Z,6.10
2023-04-18T09:55:42.438Z,5.93
2023-04-18T09:58:10.422Z,6.00
2023-04-18T10:00:38.171Z,6.55
2023-04-18T10:03:09.817Z,6.75
2023-04-18T10:05:39.849Z,6.55
2023-04-18T10:08:06.921Z,7.47
2023-04-18T10:10:34.256Z,5.90
2023-04-18T10:13:02.476Z,6.55
2023-04-18T10:15:30.905Z,5.30
2023-04-18T10:18:14.833Z,5.53
2023-04-18T10:20:42.254Z,7.22
2023-04-18T10:23:30.971Z,5.50
2023-04-18T10:25:58.573Z,5.93
2023-04-18T10:28:26.487Z,5.90
2023-04-18T10:30:54.229Z,6.03
2023-04-18T10:33:36.907Z,6.40
2023-04-18T10:36:08.962Z,8.18
2023-04-18T10:38:39.808Z,7.13
2023-04-18T10:41:23.722Z,5.20
2023-04-18T10:44:13.118Z,4.88
2023-04-18T10:47:03.954Z,5.05
2023-04-18T10:49:33.807Z,4.32
2023-04-18T10:52:01.998Z,5.28
2023-04-18T10:54:47.251Z,4.22
2023-04-18T10:57:13.990Z,4.88
2023-04-18T10:59:48.368Z,4.15
2023-04-18T11:02:30.152Z,5.78
2023-04-18T11:07:42.226Z,5.22
2023-04-18T11:10:09.823Z,5.57
2023-04-18T11:12:39.283Z,6.78
2023-04-18T11:15:15.011Z,4.63
2023-04-18T11:17:41.652Z,5.80
2023-04-18T11:20:12.739Z,5.72
2023-04-18T11:22:46.538Z,5.07
2023-04-18T11:25:13.544Z,5.05
2023-04-18T11:27:45.234Z,4.88
2023-04-18T11:30:14.072Z,4.68
2023-04-18T11:32:41.466Z,6.15
2023-04-18T11:35:09.541Z,5.88
2023-04-18T11:37:40.700Z,5.00
2023-04-18T11:40:11.719Z,6.13
2023-04-18T11:42:41.213Z,6.93
2023-04-18T11:45:15.658Z,6.05
2023-04-18T11:47:43.551Z,6.40
2023-04-18T11:50:12.150Z,3.92
2023-04-18T11:52:41.513Z,8.73
2023-04-18T11:55:21.480Z,3.55
2023-04-18T11:57:54.648Z,3.42
2023-04-18T12:00:35.363Z,4.53
2023-04-18T12:03:07.878Z,6.88
2023-04-18T12:05:39.020Z,3.80
2023-04-18T12:08:13.991Z,3.83
2023-04-18T12:10:48.426Z,4.05
2023-04-18T12:13:15.175Z,3.60
2023-04-18T12:15:47.051Z,3.42
2023-04-18T12:18:15.389Z,4.75
2023-04-18T12:20:52.495Z,4.00
2023-04-18T12:23:37.090Z,5.07
2023-04-18T12:26:14.987Z,8.95
2023-04-18T12:28:45.173Z,6.13
2023-04-18T12:31:11.939Z,5.03
2023-04-18T12:33:38.678Z,4.47
2023-04-18T12:36:06.125Z,3.13
2023-04-18T12:38:32.740Z,3.33
2023-04-18T12:40:59.424Z,3.78
2023-04-18T12:43:26.530Z,4.22
2023-04-18T12:45:55.230Z,4.50
2023-04-18T12:48:22.617Z,4.55
2023-04-18T12:50:49.307Z,3.60
2023-04-18T12:53:16.225Z,4.10
2023-04-18T12:55:42.800Z,2.80
2023-04-18T12:58:09.379Z,3.58
2023-04-18T13:00:35.967Z,4.93
2023-04-18T13:03:02.908Z,3.53
2023-04-18T13:05:32.991Z,3.53
2023-04-18T13:08:12.843Z,5.45
2023-04-18T13:10:43.607Z,4.75
2023-04-18T13:13:11.443Z,6.10
2023-04-18T13:15:38.175Z,5.72
2023-04-18T13:18:06.538Z,3.22
2023-04-18T13:20:34.121Z,3.30
2023-04-18T13:23:02.628Z,5.82
2023-04-18T13:25:29.225Z,3.45
2023-04-18T13:27:56.514Z,4.70
2023-04-18T13:30:23.090Z,3.67
2023-04-18T13:32:50.181Z,3.70
2023-04-18T13:35:16.901Z,3.38
2023-04-18T13:37:43.761Z,4.78
2023-04-18T13:40:11.073Z,6.05
2023-04-18T13:42:38.765Z,3.53
2023-04-18T13:45:06.349Z,3.55
2023-04-18T13:47:33.020Z,4.97
2023-04-18T13:50:00.074Z,6.32
2023-04-18T13:52:28.051Z,5.32
2023-04-18T13:54:56.389Z,4.28
2023-04-18T13:57:24.066Z,4.25
2023-04-18T13:59:50.947Z,4.55
2023-04-18T14:02:17.642Z,6.57
2023-04-18T14:04:44.510Z,4.90
2023-04-18T14:07:11.341Z,5.75
2023-04-18T14:09:37.971Z,6.00
2023-04-18T14:12:05.016Z,6.03
2023-04-18T14:14:32.587Z,6.00
2023-04-18T14:16:59.264Z,6.88
2023-04-18T14:19:27.080Z,6.40
2023-04-18T14:21:53.666Z,7.00
2023-04-18T14:24:20.417Z,7.18
2023-04-18T14:26:48.133Z,9.18
2023-04-18T14:29:15.085Z,7.63
2023-04-18T14:31:42.204Z,8.32
2023-04-18T14:34:09.866Z,9.18
2023-04-18T14:36:36.973Z,8.40
2023-04-18T14:39:03.702Z,8.65
2023-04-18T14:41:30.351Z,11.82
2023-04-18T14:43:56.873Z,8.65
2023-04-18T14:46:23.571Z,8.05
2023-04-18T14:48:51.364Z,9.68
2023-04-18T14:51:18.038Z,7.80
2023-04-18T14:53:44.813Z,7.47
2023-04-18T14:56:11.756Z,7.57
2023-04-18T14:58:38.505Z,8.25
2023-04-18T15:01:05.913Z,7.88
2023-04-18T15:03:33.238Z,7.80
2023-04-18T15:06:00.186Z,7.45
2023-04-18T15:08:32.707Z,9.05
2023-04-18T15:10:59.885Z,7.47
2023-04-18T15:13:26.768Z,7.82
2023-04-18T15:15:54.652Z,8.05
2023-04-18T15:18:21.577Z,9.35
2023-04-18T15:20:48.368Z,9.18
2023-04-18T15:23:15.454Z,11.50
2023-04-18T15:25:44.565Z,9.73
2023-04-18T15:28:14.885Z,9.27
2023-04-18T15:30:41.626Z,9.63
2023-04-18T15:33:08.598Z,10.43
2023-04-18T15:35:35.812Z,8.85
2023-04-18T15:38:02.479Z,9.43
2023-04-18T15:40:29.086Z,9.35
2023-04-18T15:42:57.734Z,10.45
2023-04-18T15:45:24.321Z,9.63
2023-04-18T15:47:51.502Z,9.10
2023-04-18T15:50:18.531Z,11.55
2023-04-18T15:52:45.330Z,8.45
2023-04-18T15:55:13.202Z,8.35
2023-04-18T15:57:40.568Z,9.75
2023-04-18T16:00:16.024Z,11.30
2023-04-18T16:02:46.327Z,8.10
2023-04-18T16:05:15.261Z,8.45
2023-04-18T16:07:42.732Z,8.18
2023-04-18T16:10:11.164Z,8.70
2023-04-18T16:12:39.803Z,7.53
2023-04-18T16:15:08.647Z,11.25
2023-04-18T16:17:38.592Z,8.48
2023-04-18T16:20:06.217Z,8.80
2023-04-18T16:22:33.551Z,8.35
2023-04-18T16:25:00.578Z,8.52
2023-04-18T16:27:28.060Z,8.18
2023-04-18T16:29:54.717Z,7.70
2023-04-18T16:32:21.436Z,7.72
2023-04-18T16:34:48.424Z,7.50
2023-04-18T16:37:15.171Z,8.15
2023-04-18T16:39:41.852Z,8.55
2023-04-18T16:42:08.544Z,8.88
2023-04-18T16:44:35.326Z,8.27
2023-04-18T16:47:01.998Z,7.80
2023-04-18T16:49:28.570Z,7.43
2023-04-18T16:51:55.207Z,7.22
2023-04-18T16:54:21.881Z,7.93
2023-04-18T16:56:48.647Z,10.25
2023-04-18T16:59:15.584Z,8.77
2023-04-18T17:01:42.204Z,7.28
2023-04-18T17:04:09.983Z,8.32
2023-04-18T17:06:36.704Z,7.60
2023-04-18T17:09:06.507Z,6.43
2023-04-18T17:11:38.776Z,6.30
2023-04-18T17:14:06.144Z,7.47
2023-04-18T17:16:34.484Z,7.45
2023-04-18T17:19:01.684Z,7.07
2023-04-18T17:21:28.287Z,9.02
2023-04-18T17:23:56.340Z,6.63
2023-04-18T17:26:25.434Z,8.30
2023-04-18T17:28:52.892Z,7.75
2023-04-18T17:31:19.628Z,6.55
2023-04-18T17:33:48.804Z,11.20
2023-04-18T17:36:15.722Z,8.05
2023-04-18T17:38:48.813Z,7.70
2023-04-18T17:41:16.818Z,8.48
2023-04-18T17:43:45.338Z,7.95
2023-04-18T17:46:13.485Z,8.48
2023-04-18T17:48:41.457Z,8.27
2023-04-18T17:51:09.740Z,8.70
2023-04-18T17:53:36.304Z,8.35
2023-04-18T17:56:03.882Z,8.93
2023-04-18T17:58:31.597Z,9.05
2023-04-18T18:00:58.406Z,7.72
2023-04-18T18:03:25.553Z,10.48
2023-04-18T18:05:54.724Z,9.85
2023-04-18T18:08:21.954Z,7.18
2023-04-18T18:10:48.712Z,9.52
2023-04-18T18:13:15.911Z,8.48
2023-04-18T18:15:42.477Z,7.85
2023-04-18T18:18:09.264Z,8.60
2023-04-18T18:20:36.228Z,8.90
2023-04-18T18:23:03.166Z,10.27
2023-04-18T18:25:31.140Z,9.15
2023-04-18T18:27:58.158Z,10.50
2023-04-18T18:30:24.798Z,8.38
2023-04-18T18:32:53.553Z,8.18
2023-04-18T18:35:20.619Z,8.13
2023-04-18T18:37:47.247Z,8.68
2023-04-18T18:40:13.892Z,10.45
2023-04-18T18:42:41.041Z,10.95
2023-04-18T18:45:10.159Z,11.02
2023-04-18T18:47:39.621Z,9.88
2023-04-18T18:50:07.628Z,8.80
2023-04-18T18:52:35.571Z,9.93
2023-04-18T18:55:03.176Z,9.98
2023-04-18T18:57:29.765Z,9.27
2023-04-18T18:59:56.334Z,8.88
2023-04-18T19:02:23.437Z,11.63
2023-04-18T19:04:50.479Z,9.30
2023-04-18T19:07:18.481Z,10.23
2023-04-18T19:09:46.398Z,8.93
2023-04-18T19:12:13.023Z,10.70
2023-04-18T19:14:41.296Z,9.32
2023-04-18T19:17:09.267Z,10.50
2023-04-18T19:19:37.062Z,9.73
2023-04-18T19:22:03.761Z,10.07
2023-04-18T19:24:31.823Z,9.80
2023-04-18T19:26:59.979Z,9.00
2023-04-18T19:29:26.676Z,10.32
2023-04-18T19:31:53.931Z,13.00
2023-04-18T19:34:22.312Z,8.75
2023-04-18T19:36:49.187Z,12.40
2023-04-18T19:39:16.972Z,10.13
2023-04-18T19:41:43.913Z,10.07
2023-04-18T19:44:10.465Z,9.95
2023-04-18T19:46:39.358Z,9.02
2023-04-18T19:49:06.309Z,11.57
2023-04-18T19:51:33.276Z,10.45
2023-04-18T19:53:59.887Z,10.40
2023-04-18T19:56:26.540Z,10.77
2023-04-18T19:58:53.248Z,9.95
2023-04-18T20:01:21.000Z,13.32
2023-04-18T20:03:48.467Z,11.10
2023-04-18T20:06:17.561Z,9.02
2023-04-18T20:08:49.622Z,9.55
2023-04-18T20:11:16.198Z,9.38
2023-04-18T20:13:43.187Z,9.40
2023-04-18T20:16:12.143Z,8.82
2023-04-18T20:18:41.916Z,8.20
2023-04-18T20:21:09.516Z,8.38
2023-04-18T20:23:38.760Z,10.85
2023-04-18T20:26:05.474Z,8.82
2023-04-18T20:28:32.276Z,11.50
2023-04-18T20:31:00.361Z,10.57
2023-04-18T20:33:29.181Z,9.20
2023-04-18T20:35:56.027Z,11.40
2023-04-18T20:38:29.313Z,8.68
2023-04-18T20:40:58.172Z,9.65
2023-04-18T20:43:24.852Z,8.82
2023-04-18T20:45:53.872Z,8.75
2023-04-18T20:48:23.301Z,9.60
2023-04-18T20:50:52.917Z,8.07
2023-04-18T20:53:21.321Z,9.52
2023-04-18T20:55:51.227Z,11.32
2023-04-18T20:58:18.681Z,8.65
2023-04-18T21:00:45.304Z,11.20
2023-04-18T21:03:14.965Z,9.00
2023-04-18T21:05:43.349Z,7.82
2023-04-18T21:08:11.165Z,10.07
2023-04-18T21:10:38.047Z,8.50
2023-04-18T21:13:04.648Z,9.13
2023-04-18T21:15:31.603Z,8.13
2023-04-18T21:17:58.262Z,9.77
2023-04-18T21:20:25.014Z,6.93
2023-04-18T21:22:52.033Z,8.30
2023-04-18T21:25:23.424Z,7.75
2023-04-18T21:27:50.889Z,8.02
2023-04-18T21:30:17.990Z,8.05
2023-04-18T21:32:46.138Z,8.32
2023-04-18T21:35:14.221Z,8.73
2023-04-18T21:37:40.720Z,8.18
2023-04-18T21:40:07.914Z,7.07
2023-04-18T21:42:37.527Z,7.97
2023-04-18T21:45:06.405Z,8.63
2023-04-18T21:47:33.126Z,8.55
2023-04-18T21:49:59.803Z,7.45
2023-04-18T21:52:26.365Z,7.45
2023-04-18T21:54:53.890Z,6.82
2023-04-18T21:57:20.484Z,10.15
2023-04-18T21:59:48.089Z,8.18
2023-04-18T22:02:14.754Z,8.63
2023-04-18T22:04:42.786Z,7.72
2023-04-18T22:07:11.427Z,7.03
2023-04-18T22:09:38.137Z,8.98
2023-04-18T22:12:05.643Z,7.30
2023-04-18T22:14:35.132Z,7.65
2023-04-18T22:17:03.284Z,7.40
2023-04-18T22:19:31.277Z,7.30
2023-04-18T22:21:58.903Z,8.32
2023-04-18T22:24:28.330Z,6.20
2023-04-18T22:26:55.006Z,6.78
2023-04-18T22:29:22.724Z,7.10
2023-04-18T22:31:49.231Z,8.13
2023-04-18T22:34:16.068Z,6.63
2023-04-18T22:36:43.801Z,6.03
2023-04-18T22:39:12.446Z,8.50
2023-04-18T22:41:39.058Z,6.07
2023-04-18T22:44:09.206Z,6.53
2023-04-18T22:46:39.279Z,7.03
2023-04-18T22:49:06.178Z,6.28
2023-04-18T22:51:32.972Z,4.90
2023-04-18T22:53:59.644Z,7.57
2023-04-18T22:56:26.521Z,5.30
2023-04-18T22:58:53.357Z,6.00
2023-04-18T23:01:19.985Z,5.60
2023-04-18T23:03:47.971Z,5.70
2023-04-18T23:06:14.722Z,6.82
2023-04-18T23:08:41.631Z,6.90
2023-04-18T23:11:10.630Z,5.45
2023-04-18T23:13:37.404Z,5.25
2023-04-18T23:16:06.044Z,5.38
2023-04-18T23:18:33.032Z,5.88
2023-04-18T23:21:01.423Z,6.50
2023-04-18T23:23:28.370Z,5.07
2023-04-18T23:25:55.264Z,5.78
2023-04-18T23:28:21.852Z,5.97
2023-04-18T23:30:50.153Z,5.63
2023-04-18T23:33:17.101Z,4.65
2023-04-18T23:35:43.723Z,6.40
2023-04-18T23:38:10.296Z,6.93
2023-04-18T23:40:36.820Z,6.80
2023-04-18T23:43:03.495Z,5.80
2023-04-18T23:45:30.166Z,5.75
2023-04-18T23:47:57.348Z,6.07
2023-04-18T23:50:24.533Z,5.68
2023-04-18T23:52:51.390Z,5.40
2023-04-18T23:55:17.996Z,7.50
2023-04-18T23:57:44.700Z,6.10
